sensor_id;sensor_type;location;lat;lon;timestamp;P1;durP1;ratioP1;P2;durP2;ratioP2
46399;SDS011;32104;50.838;4.388;2023-01-31T00:01:53;20.55;;;3.33;;
46399;SDS011;32104;50.838;4.388;2023-01-31T00:04:49;24.90;;;3.40;;
46399;SDS011;32104;50.838;4.388;2023-01-31T00:07:28;21.83;;;3.47;;
46399;SDS011;32104;50.838;4.388;2023-01-31T00:10:04;14.48;;;3.25;;
46399;SDS011;32104;50.838;4.388;2023-01-31T00:13:01;29.80;;;4.05;;
46399;SDS011;32104;50.838;4.388;2023-01-31T00:16:16;19.92;;;3.78;;
46399;SDS011;32104;50.838;4.388;2023-01-31T00:19:08;26.48;;;3.83;;
46399;SDS011;32104;50.838;4.388;2023-01-31T00:21:43;25.67;;;3.70;;
46399;SDS011;32104;50.838;4.388;2023-01-31T00:24:13;18.17;;;3.78;;
46399;SDS011;32104;50.838;4.388;2023-01-31T00:26:50;16.77;;;3.38;;
46399;SDS011;32104;50.838;4.388;2023-01-31T00:29:24;19.52;;;4.30;;
46399;SDS011;32104;50.838;4.388;2023-01-31T00:31:50;22.70;;;4.97;;
46399;SDS011;32104;50.838;4.388;2023-01-31T00:34:19;23.20;;;3.50;;
46399;SDS011;32104;50.838;4.388;2023-01-31T00:36:46;11.35;;;3.00;;
46399;SDS011;32104;50.838;4.388;2023-01-31T00:39:12;21.15;;;3.50;;
46399;SDS011;32104;50.838;4.388;2023-01-31T00:41:39;19.65;;;3.95;;
46399;SDS011;32104;50.838;4.388;2023-01-31T00:44:08;21.17;;;3.45;;
46399;SDS011;32104;50.838;4.388;2023-01-31T00:46:45;19.08;;;3.00;;
46399;SDS011;32104;50.838;4.388;2023-01-31T00:49:13;24.00;;;3.20;;
46399;SDS011;32104;50.838;4.388;2023-01-31T00:51:40;12.75;;;3.03;;
46399;SDS011;32104;50.838;4.388;2023-01-31T00:54:09;14.48;;;2.60;;
46399;SDS011;32104;50.838;4.388;2023-01-31T00:56:35;16.83;;;4.70;;
46399;SDS011;32104;50.838;4.388;2023-01-31T00:59:24;16.15;;;3.10;;
46399;SDS011;32104;50.838;4.388;2023-01-31T01:01:54;14.80;;;3.30;;
46399;SDS011;32104;50.838;4.388;2023-01-31T01:05:10;18.05;;;3.05;;
46399;SDS011;32104;50.838;4.388;2023-01-31T01:11:13;14.77;;;3.53;;
46399;SDS011;32104;50.838;4.388;2023-01-31T01:13:43;22.98;;;3.83;;
46399;SDS011;32104;50.838;4.388;2023-01-31T01:16:14;9.05;;;2.75;;
46399;SDS011;32104;50.838;4.388;2023-01-31T01:18:47;20.88;;;3.78;;
46399;SDS011;32104;50.838;4.388;2023-01-31T01:23:44;14.75;;;3.22;;
46399;SDS011;32104;50.838;4.388;2023-01-31T01:26:13;21.45;;;3.47;;
46399;SDS011;32104;50.838;4.388;2023-01-31T01:28:49;23.70;;;4.00;;
46399;SDS011;32104;50.838;4.388;2023-01-31T01:31:29;13.73;;;2.70;;
46399;SDS011;32104;50.838;4.388;2023-01-31T01:34:10;14.85;;;2.88;;
46399;SDS011;32104;50.838;4.388;2023-01-31T01:36:44;15.77;;;2.78;;
46399;SDS011;32104;50.838;4.388;2023-01-31T01:39:10;19.13;;;3.28;;
46399;SDS011;32104;50.838;4.388;2023-01-31T01:41:38;18.30;;;3.08;;
46399;SDS011;32104;50.838;4.388;2023-01-31T01:50:16;16.52;;;3.40;;
46399;SDS011;32104;50.838;4.388;2023-01-31T01:53:18;18.77;;;3.88;;
46399;SDS011;32104;50.838;4.388;2023-01-31T01:55:54;12.88;;;3.20;;
46399;SDS011;32104;50.838;4.388;2023-01-31T01:58:28;11.02;;;3.53;;
46399;SDS011;32104;50.838;4.388;2023-01-31T02:07:18;18.77;;;3.92;;
46399;SDS011;32104;50.838;4.388;2023-01-31T02:12:41;17.17;;;3.78;;
46399;SDS011;32104;50.838;4.388;2023-01-31T02:15:10;24.20;;;3.80;;
46399;SDS011;32104;50.838;4.388;2023-01-31T02:17:40;18.83;;;4.53;;
46399;SDS011;32104;50.838;4.388;2023-01-31T02:20:24;11.05;;;3.30;;
46399;SDS011;32104;50.838;4.388;2023-01-31T02:31:28;22.65;;;3.30;;
46399;SDS011;32104;50.838;4.388;2023-01-31T02:48:56;13.45;;;3.00;;
46399;SDS011;32104;50.838;4.388;2023-01-31T02:52:21;19.70;;;3.85;;
46399;SDS011;32104;50.838;4.388;2023-01-31T02:58:16;13.38;;;3.75;;
46399;SDS011;32104;50.838;4.388;2023-01-31T03:00:49;19.73;;;4.53;;
46399;SDS011;32104;50.838;4.388;2023-01-31T03:03:28;27.98;;;4.13;;
46399;SDS011;32104;50.838;4.388;2023-01-31T03:09:02;20.88;;;4.40;;
46399;SDS011;32104;50.838;4.388;2023-01-31T03:11:58;11.38;;;3.70;;
46399;SDS011;32104;50.838;4.388;2023-01-31T03:20:21;13.50;;;3.78;;
46399;SDS011;32104;50.838;4.388;2023-01-31T03:22:56;23.40;;;4.00;;
46399;SDS011;32104;50.838;4.388;2023-01-31T03:25:27;20.90;;;3.92;;
46399;SDS011;32104;50.838;4.388;2023-01-31T03:27:56;24.23;;;4.50;;
46399;SDS011;32104;50.838;4.388;2023-01-31T03:36:01;14.30;;;3.72;;
46399;SDS011;32104;50.838;4.388;2023-01-31T03:41:44;16.67;;;3.45;;
46399;SDS011;32104;50.838;4.388;2023-01-31T03:44:50;18.05;;;3.60;;
46399;SDS011;32104;50.838;4.388;2023-01-31T03:50:35;22.27;;;3.55;;
46399;SDS011;32104;50.838;4.388;2023-01-31T03:55:59;20.20;;;3.65;;
46399;SDS011;32104;50.838;4.388;2023-01-31T03:58:40;12.25;;;2.80;;
46399;SDS011;32104;50.838;4.388;2023-01-31T04:01:14;20.88;;;3.25;;
46399;SDS011;32104;50.838;4.388;2023-01-31T04:03:45;12.23;;;2.40;;
46399;SDS011;32104;50.838;4.388;2023-01-31T04:06:19;11.18;;;2.40;;
46399;SDS011;32104;50.838;4.388;2023-01-31T04:08:45;8.70;;;2.60;;
46399;SDS011;32104;50.838;4.388;2023-01-31T04:11:14;18.27;;;3.13;;
46399;SDS011;32104;50.838;4.388;2023-01-31T04:13:40;22.95;;;2.72;;
46399;SDS011;32104;50.838;4.388;2023-01-31T04:16:09;21.70;;;3.30;;
46399;SDS011;32104;50.838;4.388;2023-01-31T04:18:35;13.88;;;2.92;;
46399;SDS011;32104;50.838;4.388;2023-01-31T04:21:04;11.35;;;2.90;;
46399;SDS011;32104;50.838;4.388;2023-01-31T04:23:30;14.65;;;2.80;;
46399;SDS011;32104;50.838;4.388;2023-01-31T04:26:02;13.38;;;2.70;;
46399;SDS011;32104;50.838;4.388;2023-01-31T04:28:28;17.13;;;3.00;;
46399;SDS011;32104;50.838;4.388;2023-01-31T04:31:00;13.18;;;2.67;;
46399;SDS011;32104;50.838;4.388;2023-01-31T04:33:29;18.52;;;2.67;;
46399;SDS011;32104;50.838;4.388;2023-01-31T04:35:55;13.55;;;2.88;;
46399;SDS011;32104;50.838;4.388;2023-01-31T04:38:21;14.68;;;3.03;;
46399;SDS011;32104;50.838;4.388;2023-01-31T04:40:49;12.52;;;2.65;;
46399;SDS011;32104;50.838;4.388;2023-01-31T04:43:18;17.33;;;2.75;;
46399;SDS011;32104;50.838;4.388;2023-01-31T04:45:44;16.50;;;2.17;;
46399;SDS011;32104;50.838;4.388;2023-01-31T04:48:10;14.10;;;2.58;;
46399;SDS011;32104;50.838;4.388;2023-01-31T04:50:38;12.13;;;2.58;;
46399;SDS011;32104;50.838;4.388;2023-01-31T04:53:04;11.57;;;2.50;;
46399;SDS011;32104;50.838;4.388;2023-01-31T04:58:04;17.95;;;2.45;;
46399;SDS011;32104;50.838;4.388;2023-01-31T05:02:58;20.55;;;2.03;;
46399;SDS011;32104;50.838;4.388;2023-01-31T05:05:25;9.85;;;2.13;;
46399;SDS011;32104;50.838;4.388;2023-01-31T05:07:58;7.93;;;1.70;;
46399;SDS011;32104;50.838;4.388;2023-01-31T05:10:29;13.48;;;2.78;;
46399;SDS011;32104;50.838;4.388;2023-01-31T05:12:55;14.68;;;2.33;;
46399;SDS011;32104;50.838;4.388;2023-01-31T05:17:51;9.50;;;2.20;;
46399;SDS011;32104;50.838;4.388;2023-01-31T05:20:30;10.35;;;2.13;;
46399;SDS011;32104;50.838;4.388;2023-01-31T05:22:59;13.48;;;2.42;;
46399;SDS011;32104;50.838;4.388;2023-01-31T05:25:29;6.90;;;2.60;;
46399;SDS011;32104;50.838;4.388;2023-01-31T05:27:55;13.57;;;2.33;;
46399;SDS011;32104;50.838;4.388;2023-01-31T05:30:24;10.63;;;2.65;;
46399;SDS011;32104;50.838;4.388;2023-01-31T05:32:58;12.68;;;1.77;;
46399;SDS011;32104;50.838;4.388;2023-01-31T05:35:24;9.63;;;2.22;;
46399;SDS011;32104;50.838;4.388;2023-01-31T05:37:52;17.63;;;1.67;;
46399;SDS011;32104;50.838;4.388;2023-01-31T05:40:19;17.95;;;2.30;;
46399;SDS011;32104;50.838;4.388;2023-01-31T05:42:57;18.33;;;3.38;;
46399;SDS011;32104;50.838;4.388;2023-01-31T05:45:34;19.20;;;2.05;;
46399;SDS011;32104;50.838;4.388;2023-01-31T05:47:59;7.93;;;2.03;;
46399;SDS011;32104;50.838;4.388;2023-01-31T05:50:30;9.65;;;1.95;;
46399;SDS011;32104;50.838;4.388;2023-01-31T05:52:59;17.27;;;2.38;;
46399;SDS011;32104;50.838;4.388;2023-01-31T05:55:35;12.82;;;1.83;;
46399;SDS011;32104;50.838;4.388;2023-01-31T05:58:03;11.70;;;2.10;;
46399;SDS011;32104;50.838;4.388;2023-01-31T06:00:29;19.17;;;3.35;;
46399;SDS011;32104;50.838;4.388;2023-01-31T06:02:59;11.07;;;1.80;;
46399;SDS011;32104;50.838;4.388;2023-01-31T06:05:25;10.85;;;2.50;;
46399;SDS011;32104;50.838;4.388;2023-01-31T06:07:55;10.75;;;2.05;;
46399;SDS011;32104;50.838;4.388;2023-01-31T06:10:22;14.95;;;2.40;;
46399;SDS011;32104;50.838;4.388;2023-01-31T06:12:52;13.13;;;2.28;;
46399;SDS011;32104;50.838;4.388;2023-01-31T06:15:27;13.60;;;2.63;;
46399;SDS011;32104;50.838;4.388;2023-01-31T06:17:53;16.45;;;2.83;;
46399;SDS011;32104;50.838;4.388;2023-01-31T06:20:20;11.98;;;2.38;;
46399;SDS011;32104;50.838;4.388;2023-01-31T06:22:50;11.57;;;2.15;;
46399;SDS011;32104;50.838;4.388;2023-01-31T06:25:18;12.77;;;2.75;;
46399;SDS011;32104;50.838;4.388;2023-01-31T06:27:49;12.57;;;2.25;;
46399;SDS011;32104;50.838;4.388;2023-01-31T06:30:15;21.15;;;2.65;;
46399;SDS011;32104;50.838;4.388;2023-01-31T06:32:44;14.32;;;2.35;;
46399;SDS011;32104;50.838;4.388;2023-01-31T06:35:14;18.05;;;3.00;;
46399;SDS011;32104;50.838;4.388;2023-01-31T06:37:40;18.23;;;2.47;;
46399;SDS011;32104;50.838;4.388;2023-01-31T06:40:17;13.85;;;2.63;;
46399;SDS011;32104;50.838;4.388;2023-01-31T06:42:47;10.27;;;2.20;;
46399;SDS011;32104;50.838;4.388;2023-01-31T06:45:23;22.67;;;2.42;;
46399;SDS011;32104;50.838;4.388;2023-01-31T06:47:59;14.35;;;2.20;;
46399;SDS011;32104;50.838;4.388;2023-01-31T06:50:26;16.02;;;2.03;;
46399;SDS011;32104;50.838;4.388;2023-01-31T06:52:57;13.55;;;2.08;;
46399;SDS011;32104;50.838;4.388;2023-01-31T06:55:23;12.60;;;2.42;;
46399;SDS011;32104;50.838;4.388;2023-01-31T06:57:49;7.40;;;2.00;;
46399;SDS011;32104;50.838;4.388;2023-01-31T07:00:22;9.70;;;1.92;;
46399;SDS011;32104;50.838;4.388;2023-01-31T07:03:08;9.23;;;2.10;;
46399;SDS011;32104;50.838;4.388;2023-01-31T07:05:37;19.05;;;1.75;;
46399;SDS011;32104;50.838;4.388;2023-01-31T07:08:09;9.35;;;2.17;;
46399;SDS011;32104;50.838;4.388;2023-01-31T07:10:35;9.35;;;1.92;;
46399;SDS011;32104;50.838;4.388;2023-01-31T07:13:04;6.68;;;1.38;;
46399;SDS011;32104;50.838;4.388;2023-01-31T07:15:50;8.02;;;2.13;;
46399;SDS011;32104;50.838;4.388;2023-01-31T07:21:35;11.50;;;2.25;;
46399;SDS011;32104;50.838;4.388;2023-01-31T07:24:09;9.27;;;2.35;;
46399;SDS011;32104;50.838;4.388;2023-01-31T07:26:58;20.33;;;2.13;;
46399;SDS011;32104;50.838;4.388;2023-01-31T07:29:34;13.00;;;2.97;;
46399;SDS011;32104;50.838;4.388;2023-01-31T07:32:00;9.73;;;2.08;;
46399;SDS011;32104;50.838;4.388;2023-01-31T07:37:10;14.73;;;2.08;;
46399;SDS011;32104;50.838;4.388;2023-01-31T07:42:58;16.60;;;2.22;;
46399;SDS011;32104;50.838;4.388;2023-01-31T07:45:26;15.82;;;2.58;;
46399;SDS011;32104;50.838;4.388;2023-01-31T07:48:01;10.15;;;1.98;;
46399;SDS011;32104;50.838;4.388;2023-01-31T07:50:31;24.00;;;3.03;;
46399;SDS011;32104;50.838;4.388;2023-01-31T07:53:13;17.95;;;1.95;;
46399;SDS011;32104;50.838;4.388;2023-01-31T07:56:12;10.18;;;1.73;;
46399;SDS011;32104;50.838;4.388;2023-01-31T08:01:52;18.08;;;1.95;;
46399;SDS011;32104;50.838;4.388;2023-01-31T08:04:59;24.02;;;1.88;;
46399;SDS011;32104;50.838;4.388;2023-01-31T08:07:45;27.38;;;2.53;;
46399;SDS011;32104;50.838;4.388;2023-01-31T08:13:42;10.50;;;1.75;;
46399;SDS011;32104;50.838;4.388;2023-01-31T08:16:33;11.65;;;2.15;;
46399;SDS011;32104;50.838;4.388;2023-01-31T08:19:13;15.23;;;2.13;;
46399;SDS011;32104;50.838;4.388;2023-01-31T08:21:55;8.60;;;1.98;;
46399;SDS011;32104;50.838;4.388;2023-01-31T08:24:46;8.37;;;2.13;;
46399;SDS011;32104;50.838;4.388;2023-01-31T08:27:42;9.85;;;2.08;;
46399;SDS011;32104;50.838;4.388;2023-01-31T08:30:20;6.05;;;1.63;;
46399;SDS011;32104;50.838;4.388;2023-01-31T08:33:21;11.90;;;2.05;;
46399;SDS011;32104;50.838;4.388;2023-01-31T08:36:25;14.50;;;2.55;;
46399;SDS011;32104;50.838;4.388;2023-01-31T08:42:18;6.60;;;1.70;;
46399;SDS011;32104;50.838;4.388;2023-01-31T08:44:50;13.90;;;1.65;;
46399;SDS011;32104;50.838;4.388;2023-01-31T08:47:35;10.52;;;2.00;;
46399;SDS011;32104;50.838;4.388;2023-01-31T08:50:29;18.50;;;2.05;;
46399;SDS011;32104;50.838;4.388;2023-01-31T08:56:37;10.88;;;2.22;;
46399;SDS011;32104;50.838;4.388;2023-01-31T08:59:26;11.30;;;1.75;;
46399;SDS011;32104;50.838;4.388;2023-01-31T09:02:15;15.23;;;2.50;;
46399;SDS011;32104;50.838;4.388;2023-01-31T09:05:26;15.13;;;2.25;;
46399;SDS011;32104;50.838;4.388;2023-01-31T09:08:25;6.57;;;1.52;;
46399;SDS011;32104;50.838;4.388;2023-01-31T09:11:04;8.32;;;1.80;;
46399;SDS011;32104;50.838;4.388;2023-01-31T09:13:46;16.13;;;1.73;;
46399;SDS011;32104;50.838;4.388;2023-01-31T09:16:43;13.07;;;1.65;;
46399;SDS011;32104;50.838;4.388;2023-01-31T09:19:38;7.68;;;1.42;;
46399;SDS011;32104;50.838;4.388;2023-01-31T09:22:47;10.55;;;1.80;;
46399;SDS011;32104;50.838;4.388;2023-01-31T09:25:42;8.52;;;1.40;;
46399;SDS011;32104;50.838;4.388;2023-01-31T09:29:11;8.02;;;2.00;;
46399;SDS011;32104;50.838;4.388;2023-01-31T09:35:17;9.85;;;2.05;;
46399;SDS011;32104;50.838;4.388;2023-01-31T09:37:59;17.75;;;2.85;;
46399;SDS011;32104;50.838;4.388;2023-01-31T09:40:53;10.73;;;1.77;;
46399;SDS011;32104;50.838;4.388;2023-01-31T09:43:33;20.35;;;2.20;;
46399;SDS011;32104;50.838;4.388;2023-01-31T09:49:21;13.52;;;2.00;;
46399;SDS011;32104;50.838;4.388;2023-01-31T09:52:03;15.43;;;1.90;;
46399;SDS011;32104;50.838;4.388;2023-01-31T09:54:39;14.43;;;1.40;;
46399;SDS011;32104;50.838;4.388;2023-01-31T10:07:31;16.30;;;2.08;;
46399;SDS011;32104;50.838;4.388;2023-01-31T10:10:37;14.55;;;2.33;;
46399;SDS011;32104;50.838;4.388;2023-01-31T10:16:40;6.70;;;1.35;;
46399;SDS011;32104;50.838;4.388;2023-01-31T10:22:56;10.80;;;1.77;;
46399;SDS011;32104;50.838;4.388;2023-01-31T10:29:36;12.52;;;2.58;;
46399;SDS011;32104;50.838;4.388;2023-01-31T10:35:23;11.75;;;2.33;;
46399;SDS011;32104;50.838;4.388;2023-01-31T10:38:17;19.25;;;2.22;;
46399;SDS011;32104;50.838;4.388;2023-01-31T10:47:50;17.85;;;3.17;;
46399;SDS011;32104;50.838;4.388;2023-01-31T10:50:48;16.65;;;2.80;;
46399;SDS011;32104;50.838;4.388;2023-01-31T10:53:43;13.38;;;3.00;;
46399;SDS011;32104;50.838;4.388;2023-01-31T10:59:48;12.75;;;2.25;;
46399;SDS011;32104;50.838;4.388;2023-01-31T11:05:56;12.45;;;2.38;;
46399;SDS011;32104;50.838;4.388;2023-01-31T11:11:26;13.20;;;1.85;;
46399;SDS011;32104;50.838;4.388;2023-01-31T11:14:06;11.88;;;2.55;;
46399;SDS011;32104;50.838;4.388;2023-01-31T11:17:02;11.85;;;2.75;;
46399;SDS011;32104;50.838;4.388;2023-01-31T11:19:48;9.25;;;1.60;;
46399;SDS011;32104;50.838;4.388;2023-01-31T11:22:30;13.82;;;2.25;;
46399;SDS011;32104;50.838;4.388;2023-01-31T11:25:02;18.08;;;2.65;;
46399;SDS011;32104;50.838;4.388;2023-01-31T11:27:39;14.50;;;2.40;;
46399;SDS011;32104;50.838;4.388;2023-01-31T11:30:19;14.70;;;2.75;;
46399;SDS011;32104;50.838;4.388;2023-01-31T11:33:03;9.55;;;2.35;;
46399;SDS011;32104;50.838;4.388;2023-01-31T11:35:48;12.38;;;2.58;;
46399;SDS011;32104;50.838;4.388;2023-01-31T11:38:25;8.40;;;2.05;;
46399;SDS011;32104;50.838;4.388;2023-01-31T11:41:32;15.73;;;1.92;;
46399;SDS011;32104;50.838;4.388;2023-01-31T11:44:18;18.63;;;2.17;;
46399;SDS011;32104;50.838;4.388;2023-01-31T11:46:51;20.17;;;2.55;;
46399;SDS011;32104;50.838;4.388;2023-01-31T11:49:28;16.67;;;2.75;;
46399;SDS011;32104;50.838;4.388;2023-01-31T11:54:58;15.32;;;3.10;;
46399;SDS011;32104;50.838;4.388;2023-01-31T11:57:35;15.15;;;2.67;;
46399;SDS011;32104;50.838;4.388;2023-01-31T12:00:15;10.30;;;2.50;;
46399;SDS011;32104;50.838;4.388;2023-01-31T12:05:40;18.48;;;2.65;;
46399;SDS011;32104;50.838;4.388;2023-01-31T12:08:28;10.48;;;2.40;;
46399;SDS011;32104;50.838;4.388;2023-01-31T12:11:04;11.82;;;2.20;;
46399;SDS011;32104;50.838;4.388;2023-01-31T12:13:51;11.55;;;1.77;;
46399;SDS011;32104;50.838;4.388;2023-01-31T12:16:23;7.38;;;1.63;;
46399;SDS011;32104;50.838;4.388;2023-01-31T12:19:01;19.20;;;2.50;;
46399;SDS011;32104;50.838;4.388;2023-01-31T12:22:01;9.90;;;2.20;;
46399;SDS011;32104;50.838;4.388;2023-01-31T12:30:59;9.48;;;1.92;;
46399;SDS011;32104;50.838;4.388;2023-01-31T12:46:44;15.85;;;3.03;;
46399;SDS011;32104;50.838;4.388;2023-01-31T13:04:05;11.80;;;2.83;;
46399;SDS011;32104;50.838;4.388;2023-01-31T13:07:01;10.18;;;2.60;;
46399;SDS011;32104;50.838;4.388;2023-01-31T13:09:37;18.95;;;2.72;;
46399;SDS011;32104;50.838;4.388;2023-01-31T13:18:27;16.33;;;3.13;;
46399;SDS011;32104;50.838;4.388;2023-01-31T13:21:07;21.83;;;3.80;;
46399;SDS011;32104;50.838;4.388;2023-01-31T13:26:49;22.35;;;3.78;;
46399;SDS011;32104;50.838;4.388;2023-01-31T13:32:28;13.90;;;3.90;;
46399;SDS011;32104;50.838;4.388;2023-01-31T13:35:02;13.05;;;3.17;;
46399;SDS011;32104;50.838;4.388;2023-01-31T13:37:52;15.20;;;3.58;;
46399;SDS011;32104;50.838;4.388;2023-01-31T13:40:28;11.10;;;3.20;;
46399;SDS011;32104;50.838;4.388;2023-01-31T13:43:45;15.07;;;3.13;;
46399;SDS011;32104;50.838;4.388;2023-01-31T13:49:26;11.40;;;2.95;;
46399;SDS011;32104;50.838;4.388;2023-01-31T13:55:25;24.52;;;3.17;;
46399;SDS011;32104;50.838;4.388;2023-01-31T14:01:23;12.60;;;3.05;;
46399;SDS011;32104;50.838;4.388;2023-01-31T14:09:36;9.63;;;2.17;;
46399;SDS011;32104;50.838;4.388;2023-01-31T14:18:33;12.10;;;2.72;;
46399;SDS011;32104;50.838;4.388;2023-01-31T14:24:16;11.30;;;3.35;;
46399;SDS011;32104;50.838;4.388;2023-01-31T14:26:51;6.35;;;1.98;;
46399;SDS011;32104;50.838;4.388;2023-01-31T14:29:24;14.95;;;3.13;;
46399;SDS011;32104;50.838;4.388;2023-01-31T14:31:52;12.07;;;2.88;;
46399;SDS011;32104;50.838;4.388;2023-01-31T14:34:23;12.65;;;3.08;;
46399;SDS011;32104;50.838;4.388;2023-01-31T14:42:28;7.95;;;2.85;;
46399;SDS011;32104;50.838;4.388;2023-01-31T14:48:14;14.05;;;3.35;;
46399;SDS011;32104;50.838;4.388;2023-01-31T14:51:11;9.52;;;2.97;;
46399;SDS011;32104;50.838;4.388;2023-01-31T14:57:14;16.80;;;3.72;;
46399;SDS011;32104;50.838;4.388;2023-01-31T15:02:20;10.73;;;3.30;;
46399;SDS011;32104;50.838;4.388;2023-01-31T15:05:12;6.10;;;2.28;;
46399;SDS011;32104;50.838;4.388;2023-01-31T15:22:39;11.77;;;3.10;;
46399;SDS011;32104;50.838;4.388;2023-01-31T15:25:19;10.05;;;2.53;;
46399;SDS011;32104;50.838;4.388;2023-01-31T15:28:09;6.03;;;2.40;;
46399;SDS011;32104;50.838;4.388;2023-01-31T15:30:43;12.30;;;2.13;;
46399;SDS011;32104;50.838;4.388;2023-01-31T15:38:34;7.30;;;1.30;;
46399;SDS011;32104;50.838;4.388;2023-01-31T15:46:41;6.30;;;2.15;;
46399;SDS011;32104;50.838;4.388;2023-01-31T15:49:23;2.53;;;1.25;;
46399;SDS011;32104;50.838;4.388;2023-01-31T15:52:13;8.20;;;1.50;;
46399;SDS011;32104;50.838;4.388;2023-01-31T15:57:38;4.45;;;1.63;;
46399;SDS011;32104;50.838;4.388;2023-01-31T16:00:17;7.93;;;2.00;;
46399;SDS011;32104;50.838;4.388;2023-01-31T16:02:59;6.97;;;1.23;;
46399;SDS011;32104;50.838;4.388;2023-01-31T16:05:33;7.22;;;1.75;;
46399;SDS011;32104;50.838;4.388;2023-01-31T16:08:05;5.97;;;1.38;;
46399;SDS011;32104;50.838;4.388;2023-01-31T16:10:51;10.18;;;1.40;;
46399;SDS011;32104;50.838;4.388;2023-01-31T16:13:30;4.13;;;1.50;;
46399;SDS011;32104;50.838;4.388;2023-01-31T16:15:59;3.88;;;1.40;;
46399;SDS011;32104;50.838;4.388;2023-01-31T16:18:32;3.22;;;1.30;;
46399;SDS011;32104;50.838;4.388;2023-01-31T16:21:11;7.70;;;1.23;;
46399;SDS011;32104;50.838;4.388;2023-01-31T16:23:55;2.60;;;1.30;;
46399;SDS011;32104;50.838;4.388;2023-01-31T16:26:31;8.02;;;1.30;;
46399;SDS011;32104;50.838;4.388;2023-01-31T16:29:07;6.20;;;1.40;;
46399;SDS011;32104;50.838;4.388;2023-01-31T16:37:40;6.97;;;1.60;;
46399;SDS011;32104;50.838;4.388;2023-01-31T16:40:19;3.65;;;1.55;;
46399;SDS011;32104;50.838;4.388;2023-01-31T16:42:45;10.60;;;2.28;;
46399;SDS011;32104;50.838;4.388;2023-01-31T16:45:49;4.28;;;1.42;;
46399;SDS011;32104;50.838;4.388;2023-01-31T16:48:26;10.38;;;1.52;;
46399;SDS011;32104;50.838;4.388;2023-01-31T16:50:57;6.82;;;1.80;;
46399;SDS011;32104;50.838;4.388;2023-01-31T16:53:32;7.97;;;1.63;;
46399;SDS011;32104;50.838;4.388;2023-01-31T17:01:57;9.43;;;1.45;;
46399;SDS011;32104;50.838;4.388;2023-01-31T17:04:43;4.57;;;1.50;;
46399;SDS011;32104;50.838;4.388;2023-01-31T17:07:35;5.60;;;1.38;;
46399;SDS011;32104;50.838;4.388;2023-01-31T17:10:07;3.88;;;1.80;;
46399;SDS011;32104;50.838;4.388;2023-01-31T17:12:34;6.53;;;1.75;;
46399;SDS011;32104;50.838;4.388;2023-01-31T17:15:15;4.70;;;1.45;;
46399;SDS011;32104;50.838;4.388;2023-01-31T17:17:48;6.97;;;1.73;;
46399;SDS011;32104;50.838;4.388;2023-01-31T17:20:18;11.02;;;1.98;;
46399;SDS011;32104;50.838;4.388;2023-01-31T17:22:49;4.78;;;1.98;;
46399;SDS011;32104;50.838;4.388;2023-01-31T17:25:17;8.45;;;2.30;;
46399;SDS011;32104;50.838;4.388;2023-01-31T17:27:48;10.95;;;1.85;;
46399;SDS011;32104;50.838;4.388;2023-01-31T17:30:24;4.35;;;1.65;;
46399;SDS011;32104;50.838;4.388;2023-01-31T17:32:57;6.25;;;2.00;;
46399;SDS011;32104;50.838;4.388;2023-01-31T17:35:28;6.40;;;2.28;;
46399;SDS011;32104;50.838;4.388;2023-01-31T17:38:05;3.80;;;1.85;;
46399;SDS011;32104;50.838;4.388;2023-01-31T17:40:41;9.48;;;1.98;;
46399;SDS011;32104;50.838;4.388;2023-01-31T17:43:19;6.22;;;1.55;;
46399;SDS011;32104;50.838;4.388;2023-01-31T17:46:18;4.57;;;1.45;;
46399;SDS011;32104;50.838;4.388;2023-01-31T17:49:03;7.28;;;1.63;;
46399;SDS011;32104;50.838;4.388;2023-01-31T17:51:39;7.07;;;2.22;;
46399;SDS011;32104;50.838;4.388;2023-01-31T17:54:09;4.25;;;1.55;;
46399;SDS011;32104;50.838;4.388;2023-01-31T17:59:48;9.93;;;1.75;;
46399;SDS011;32104;50.838;4.388;2023-01-31T18:05:30;9.80;;;2.33;;
46399;SDS011;32104;50.838;4.388;2023-01-31T18:08:16;7.63;;;2.08;;
46399;SDS011;32104;50.838;4.388;2023-01-31T18:11:05;12.05;;;2.40;;
46399;SDS011;32104;50.838;4.388;2023-01-31T18:13:40;7.05;;;1.90;;
46399;SDS011;32104;50.838;4.388;2023-01-31T18:16:11;6.47;;;2.05;;
46399;SDS011;32104;50.838;4.388;2023-01-31T18:18:46;7.15;;;2.50;;
46399;SDS011;32104;50.838;4.388;2023-01-31T18:21:56;6.93;;;2.03;;
46399;SDS011;32104;50.838;4.388;2023-01-31T18:24:29;10.57;;;2.08;;
46399;SDS011;32104;50.838;4.388;2023-01-31T18:27:01;3.38;;;1.50;;
46399;SDS011;32104;50.838;4.388;2023-01-31T18:29:33;3.25;;;1.73;;
46399;SDS011;32104;50.838;4.388;2023-01-31T18:32:02;5.07;;;1.98;;
46399;SDS011;32104;50.838;4.388;2023-01-31T18:34:51;5.22;;;1.85;;
46399;SDS011;32104;50.838;4.388;2023-01-31T18:37:17;6.53;;;1.83;;
46399;SDS011;32104;50.838;4.388;2023-01-31T18:40:07;9.18;;;1.80;;
46399;SDS011;32104;50.838;4.388;2023-01-31T18:43:14;6.40;;;1.90;;
46399;SDS011;32104;50.838;4.388;2023-01-31T18:45:57;10.20;;;2.45;;
46399;SDS011;32104;50.838;4.388;2023-01-31T18:48:54;7.88;;;1.60;;
46399;SDS011;32104;50.838;4.388;2023-01-31T18:51:20;8.82;;;2.28;;
46399;SDS011;32104;50.838;4.388;2023-01-31T18:57:56;5.78;;;1.98;;
46399;SDS011;32104;50.838;4.388;2023-01-31T19:04:01;7.60;;;1.80;;
46399;SDS011;32104;50.838;4.388;2023-01-31T19:10:06;10.95;;;2.88;;
46399;SDS011;32104;50.838;4.388;2023-01-31T19:12:59;9.35;;;2.20;;
46399;SDS011;32104;50.838;4.388;2023-01-31T19:15:57;12.30;;;3.17;;
46399;SDS011;32104;50.838;4.388;2023-01-31T19:18:45;16.25;;;2.50;;
46399;SDS011;32104;50.838;4.388;2023-01-31T19:21:49;14.07;;;3.17;;
46399;SDS011;32104;50.838;4.388;2023-01-31T19:24:57;11.60;;;3.20;;
46399;SDS011;32104;50.838;4.388;2023-01-31T19:27:45;9.40;;;2.90;;
46399;SDS011;32104;50.838;4.388;2023-01-31T19:30:36;10.05;;;3.25;;
46399;SDS011;32104;50.838;4.388;2023-01-31T19:33:33;9.13;;;3.25;;
46399;SDS011;32104;50.838;4.388;2023-01-31T19:36:15;10.02;;;3.13;;
46399;SDS011;32104;50.838;4.388;2023-01-31T19:39:03;10.48;;;2.85;;
46399;SDS011;32104;50.838;4.388;2023-01-31T19:42:01;10.70;;;3.45;;
46399;SDS011;32104;50.838;4.388;2023-01-31T19:47:39;9.02;;;3.90;;
46399;SDS011;32104;50.838;4.388;2023-01-31T19:53:17;19.08;;;3.83;;
46399;SDS011;32104;50.838;4.388;2023-01-31T19:55:43;15.00;;;3.65;;
46399;SDS011;32104;50.838;4.388;2023-01-31T19:58:43;19.38;;;3.17;;
46399;SDS011;32104;50.838;4.388;2023-01-31T20:01:13;10.90;;;3.70;;
46399;SDS011;32104;50.838;4.388;2023-01-31T20:03:50;11.68;;;4.10;;
46399;SDS011;32104;50.838;4.388;2023-01-31T20:07:01;13.32;;;4.47;;
46399;SDS011;32104;50.838;4.388;2023-01-31T20:19:23;17.00;;;4.68;;
46399;SDS011;32104;50.838;4.388;2023-01-31T20:45:18;15.05;;;5.10;;
46399;SDS011;32104;50.838;4.388;2023-01-31T20:51:52;25.15;;;6.00;;
46399;SDS011;32104;50.838;4.388;2023-01-31T21:09:28;16.23;;;5.80;;
46399;SDS011;32104;50.838;4.388;2023-01-31T21:19:26;16.23;;;5.88;;
46399;SDS011;32104;50.838;4.388;2023-01-31T21:32:17;16.73;;;6.07;;
46399;SDS011;32104;50.838;4.388;2023-01-31T21:42:21;18.88;;;6.38;;
46399;SDS011;32104;50.838;4.388;2023-01-31T21:49:24;15.68;;;6.13;;
46399;SDS011;32104;50.838;4.388;2023-01-31T21:55:44;16.88;;;5.68;;
46399;SDS011;32104;50.838;4.388;2023-01-31T22:01:59;15.43;;;6.65;;
46399;SDS011;32104;50.838;4.388;2023-01-31T22:08:25;22.40;;;7.25;;
46399;SDS011;32104;50.838;4.388;2023-01-31T22:10:57;17.98;;;6.78;;
46399;SDS011;32104;50.838;4.388;2023-01-31T22:13:49;22.40;;;6.70;;
46399;SDS011;32104;50.838;4.388;2023-01-31T22:16:40;21.48;;;6.80;;
46399;SDS011;32104;50.838;4.388;2023-01-31T22:19:28;19.27;;;7.13;;
46399;SDS011;32104;50.838;4.388;2023-01-31T22:25:48;18.90;;;6.22;;